createdAt,value
2022-10-05T00:01:52.983Z,8.11
2022-10-05T00:07:18.695Z,8.13
2022-10-05T00:09:49.523Z,8.10
2022-10-05T00:12:18.327Z,8.10
2022-10-05T00:14:46.910Z,8.10
2022-10-05T00:17:19.942Z,8.06
2022-10-05T00:19:51.903Z,8.08
2022-10-05T00:22:20.962Z,8.04
2022-10-05T00:24:50.020Z,8.04
2022-10-05T00:27:25.884Z,7.99
2022-10-05T00:29:57.545Z,7.99
2022-10-05T00:32:23.915Z,8.03
2022-10-05T00:34:50.220Z,7.97
2022-10-05T00:37:16.519Z,7.82
2022-10-05T00:39:43.340Z,7.76
2022-10-05T00:42:44.948Z,7.85
2022-10-05T00:45:25.778Z,7.82
2022-10-05T00:48:18.657Z,7.69
2022-10-05T00:51:11.259Z,7.67
2022-10-05T00:53:43.308Z,7.65
2022-10-05T00:56:28.472Z,7.67
2022-10-05T00:59:05.763Z,7.55
2022-10-05T01:01:38.623Z,7.42
2022-10-05T01:04:38.851Z,7.42
2022-10-05T01:07:35.816Z,7.43
2022-10-05T01:10:16.841Z,7.39
2022-10-05T01:13:04.392Z,7.39
2022-10-05T01:15:49.046Z,7.26
2022-10-05T01:18:31.421Z,7.22
2022-10-05T01:21:19.585Z,7.17
2022-10-05T01:24:12.995Z,7.22
2022-10-05T01:26:48.787Z,7.21
2022-10-05T01:29:30.242Z,7.16
2022-10-05T01:31:58.929Z,7.16
2022-10-05T01:34:44.600Z,7.07
2022-10-05T01:37:19.741Z,7.17
2022-10-05T01:40:20.889Z,7.07
2022-10-05T01:42:56.276Z,7.17
2022-10-05T01:45:53.895Z,7.14
2022-10-05T01:48:41.893Z,7.01
2022-10-05T01:51:26.185Z,7.04
2022-10-05T01:54:09.400Z,7.10
2022-10-05T01:56:58.783Z,7.10
2022-10-05T01:59:33.117Z,7.07
2022-10-05T02:02:08.066Z,7.11
2022-10-05T02:05:01.808Z,7.11
2022-10-05T02:07:52.783Z,7.10
2022-10-05T02:10:19.027Z,7.11
2022-10-05T02:12:48.060Z,7.08
2022-10-05T02:15:19.855Z,7.04
2022-10-05T02:17:50.243Z,7.03
2022-10-05T02:20:28.782Z,6.99
2022-10-05T02:23:00.268Z,6.98
2022-10-05T02:25:32.276Z,6.86
2022-10-05T02:28:10.769Z,6.81
2022-10-05T02:30:47.219Z,6.73
2022-10-05T02:33:26.762Z,6.73
2022-10-05T02:35:53.120Z,7.03
2022-10-05T02:38:50.006Z,7.21
2022-10-05T02:41:35.242Z,7.35
2022-10-05T02:44:23.887Z,7.54
2022-10-05T02:47:05.060Z,7.72
2022-10-05T02:49:53.737Z,7.79
2022-10-05T02:52:39.587Z,7.80
2022-10-05T02:55:13.574Z,7.88
2022-10-05T02:57:53.066Z,8.00
2022-10-05T03:00:23.909Z,7.96
2022-10-05T03:03:06.416Z,7.99
2022-10-05T03:05:46.378Z,7.97
2022-10-05T03:08:31.196Z,7.98
2022-10-05T03:11:30.154Z,7.90
2022-10-05T03:14:25.123Z,7.60
2022-10-05T03:17:13.324Z,7.38
2022-10-05T03:19:54.775Z,7.22
2022-10-05T03:22:51.987Z,7.03
2022-10-05T03:25:36.014Z,7.03
2022-10-05T03:28:26.645Z,6.75
2022-10-05T03:31:13.676Z,6.66
2022-10-05T03:33:44.304Z,6.62
2022-10-05T03:36:16.353Z,6.45
2022-10-05T03:39:00.959Z,6.40
2022-10-05T03:41:42.693Z,6.40
2022-10-05T03:44:26.355Z,6.40
2022-10-05T03:47:07.673Z,6.35
2022-10-05T03:49:45.158Z,6.40
2022-10-05T03:52:18.529Z,6.34
2022-10-05T03:54:54.051Z,6.42
2022-10-05T03:57:23.021Z,6.46
2022-10-05T03:59:58.364Z,6.40
2022-10-05T04:02:29.321Z,6.37
2022-10-05T04:05:04.715Z,6.42
2022-10-05T04:07:50.141Z,6.41
2022-10-05T04:10:25.114Z,6.48
2022-10-05T04:13:01.208Z,6.48
2022-10-05T04:15:37.450Z,6.54
2022-10-05T04:18:11.303Z,6.57
2022-10-05T04:20:52.109Z,6.62
2022-10-05T04:23:21.137Z,6.57
2022-10-05T04:26:20.348Z,6.56
2022-10-05T04:29:00.796Z,6.55
2022-10-05T04:31:56.345Z,6.61
2022-10-05T04:34:44.331Z,6.62
2022-10-05T04:37:22.087Z,6.66
2022-10-05T04:40:12.370Z,6.70
2022-10-05T04:42:52.729Z,6.75
2022-10-05T04:45:44.768Z,6.77
2022-10-05T04:48:24.807Z,6.75
2022-10-05T04:51:21.870Z,6.74
2022-10-05T04:53:54.780Z,6.75
2022-10-05T04:56:55.760Z,6.73
2022-10-05T04:59:45.325Z,6.66
2022-10-05T05:02:24.193Z,6.62
2022-10-05T05:05:08.924Z,6.62
2022-10-05T05:07:48.016Z,6.60
2022-10-05T05:10:45.655Z,6.64
2022-10-05T05:13:39.936Z,6.70
2022-10-05T05:16:26.933Z,6.76
2022-10-05T05:19:01.696Z,6.81
2022-10-05T05:21:49.535Z,6.89
2022-10-05T05:24:33.502Z,6.98
2022-10-05T05:27:27.034Z,7.05
2022-10-05T05:29:59.173Z,7.10
2022-10-05T05:32:58.704Z,7.13
2022-10-05T05:35:40.566Z,7.21
2022-10-05T05:38:31.766Z,7.24
2022-10-05T05:41:10.127Z,7.29
2022-10-05T05:43:53.128Z,7.34
2022-10-05T05:47:01.802Z,7.40
2022-10-05T05:49:35.579Z,7.44
2022-10-05T05:52:13.748Z,7.48
2022-10-05T05:55:00.999Z,7.46
2022-10-05T05:57:49.976Z,7.45
2022-10-05T06:00:21.844Z,7.54
2022-10-05T06:03:03.493Z,7.47
2022-10-05T06:05:47.852Z,7.34
2022-10-05T06:08:23.858Z,7.37
2022-10-05T06:10:58.432Z,7.45
2022-10-05T06:13:30.313Z,7.42
2022-10-05T06:16:23.229Z,7.51
2022-10-05T06:19:04.794Z,7.51
2022-10-05T06:21:47.838Z,7.52
2022-10-05T06:24:20.985Z,7.48
2022-10-05T06:27:25.054Z,7.59
2022-10-05T06:30:04.935Z,7.63
2022-10-05T06:32:33.960Z,7.68
2022-10-05T06:35:19.289Z,7.76
2022-10-05T06:38:17.929Z,7.87
2022-10-05T06:41:04.863Z,7.98
2022-10-05T06:43:46.448Z,8.06
2022-10-05T06:46:57.876Z,8.03
2022-10-05T06:49:50.408Z,8.07
2022-10-05T06:52:38.068Z,8.10
2022-10-05T06:55:35.568Z,8.20
2022-10-05T06:58:27.657Z,8.27
2022-10-05T07:01:10.532Z,8.36
2022-10-05T07:03:46.427Z,8.45
2022-10-05T07:06:12.816Z,8.58
2022-10-05T07:08:54.381Z,8.68
2022-10-05T07:11:44.351Z,8.70
2022-10-05T07:14:19.833Z,8.69
2022-10-05T07:16:55.237Z,8.73
2022-10-05T07:19:45.933Z,8.84
2022-10-05T07:22:46.393Z,8.92
2022-10-05T07:26:06.792Z,8.97
2022-10-05T07:28:39.493Z,9.03
2022-10-05T07:31:16.284Z,9.07
2022-10-05T07:33:57.740Z,9.14
2022-10-05T07:36:54.412Z,9.17
2022-10-05T07:39:55.402Z,9.20
2022-10-05T07:42:46.045Z,9.28
2022-10-05T07:45:39.002Z,9.32
2022-10-05T07:48:22.488Z,9.37
2022-10-05T07:51:32.921Z,9.40
2022-10-05T07:54:21.403Z,9.37
2022-10-05T07:57:06.025Z,9.44
2022-10-05T07:59:43.914Z,9.51
2022-10-05T08:02:25.278Z,9.63
2022-10-05T08:05:03.819Z,9.73
2022-10-05T08:07:34.700Z,9.77
2022-10-05T08:10:29.675Z,9.87
2022-10-05T08:12:59.151Z,9.93
2022-10-05T08:15:42.967Z,10.03
2022-10-05T08:18:37.279Z,10.05
2022-10-05T08:21:08.940Z,10.10
2022-10-05T08:23:51.309Z,10.33
2022-10-05T08:26:30.456Z,10.52
2022-10-05T08:28:59.728Z,10.65
2022-10-05T08:31:34.431Z,10.63
2022-10-05T08:34:20.046Z,10.78
2022-10-05T08:36:54.185Z,10.91
2022-10-05T08:39:24.100Z,11.04
2022-10-05T08:42:15.270Z,11.11
2022-10-05T08:45:09.221Z,11.19
2022-10-05T08:47:54.269Z,11.19
2022-10-05T08:50:48.438Z,11.35
2022-10-05T08:53:28.799Z,11.43
2022-10-05T08:56:48.954Z,11.74
2022-10-05T08:59:45.416Z,11.99
2022-10-05T09:02:14.763Z,12.34
2022-10-05T09:04:57.975Z,12.61
2022-10-05T09:07:37.551Z,12.73
2022-10-05T09:10:40.544Z,12.99
2022-10-05T09:13:31.580Z,13.28
2022-10-05T09:16:35.577Z,13.54
2022-10-05T09:19:39.610Z,13.59
2022-10-05T09:22:30.132Z,13.78
2022-10-05T09:25:08.479Z,14.08
2022-10-05T09:27:43.625Z,14.33
2022-10-05T09:30:24.401Z,14.50
2022-10-05T09:33:08.488Z,14.63
2022-10-05T09:36:02.792Z,14.71
2022-10-05T09:38:43.626Z,14.74
2022-10-05T09:41:28.592Z,15.15
2022-10-05T09:44:22.841Z,15.40
2022-10-05T09:47:18.319Z,15.21
2022-10-05T09:50:03.433Z,15.31
2022-10-05T09:52:41.018Z,15.18
2022-10-05T09:55:33.342Z,15.46
2022-10-05T09:58:20.192Z,15.35
2022-10-05T10:01:29.024Z,15.65
2022-10-05T10:04:09.723Z,15.92
2022-10-05T10:06:42.284Z,16.15
2022-10-05T10:09:33.021Z,16.10
2022-10-05T10:12:29.336Z,16.26
2022-10-05T10:15:16.950Z,16.76
2022-10-05T10:18:01.876Z,16.56
2022-10-05T10:20:53.135Z,16.49
2022-10-05T10:23:29.107Z,16.33
2022-10-05T10:26:17.207Z,16.54
2022-10-05T10:29:16.498Z,16.01
2022-10-05T10:31:55.861Z,15.82
2022-10-05T10:34:37.715Z,15.93
2022-10-05T10:37:35.137Z,16.20
2022-10-05T10:40:26.784Z,16.34
2022-10-05T10:42:56.217Z,16.81
2022-10-05T10:45:48.056Z,17.30
2022-10-05T10:48:29.309Z,17.41
2022-10-05T10:51:22.000Z,17.31
2022-10-05T10:54:28.743Z,17.16
2022-10-05T10:57:17.596Z,17.10
2022-10-05T11:00:06.221Z,17.29
2022-10-05T11:03:05.086Z,17.05
2022-10-05T11:05:56.440Z,16.83
2022-10-05T11:08:50.476Z,16.91
2022-10-05T11:11:31.767Z,16.87
2022-10-05T11:14:03.851Z,16.85
2022-10-05T11:16:46.464Z,17.01
2022-10-05T11:19:13.041Z,16.96
2022-10-05T11:21:42.263Z,17.10
2022-10-05T11:24:19.568Z,17.20
2022-10-05T11:27:29.075Z,17.75
2022-10-05T11:30:20.724Z,17.96
2022-10-05T11:32:52.750Z,18.19
2022-10-05T11:35:35.019Z,17.89
2022-10-05T11:38:03.968Z,17.85
2022-10-05T11:41:08.798Z,17.73
2022-10-05T11:43:56.567Z,17.53
2022-10-05T11:46:50.819Z,17.49
2022-10-05T11:49:29.548Z,17.43
2022-10-05T11:52:22.052Z,17.73
2022-10-05T11:55:10.478Z,17.85
2022-10-05T11:57:56.972Z,17.76
2022-10-05T12:00:24.910Z,17.80
2022-10-05T12:03:19.771Z,17.94
2022-10-05T12:05:56.240Z,17.96
2022-10-05T12:08:31.908Z,17.96
2022-10-05T12:11:04.359Z,17.84
2022-10-05T12:13:45.464Z,17.86
2022-10-05T12:16:28.490Z,18.07
2022-10-05T12:19:18.694Z,18.10
2022-10-05T12:21:56.253Z,17.97
2022-10-05T12:24:46.194Z,17.93
2022-10-05T12:27:20.539Z,17.91
2022-10-05T12:29:59.195Z,18.03
2022-10-05T12:32:29.278Z,18.04
2022-10-05T12:35:13.852Z,18.17
2022-10-05T12:37:47.628Z,18.20
2022-10-05T12:40:32.190Z,18.14
2022-10-05T12:43:02.948Z,18.31
2022-10-05T12:45:47.080Z,18.38
2022-10-05T12:48:42.088Z,18.35
2022-10-05T12:51:49.956Z,18.28
2022-10-05T12:54:27.929Z,18.30
2022-10-05T12:56:57.156Z,18.38
2022-10-05T12:59:38.036Z,18.38
2022-10-05T13:02:35.355Z,18.33
2022-10-05T13:05:10.893Z,18.32
2022-10-05T13:08:10.862Z,18.42
2022-10-05T13:10:41.051Z,18.41
2022-10-05T13:13:37.262Z,18.39
2022-10-05T13:16:15.092Z,18.37
2022-10-05T13:18:58.939Z,18.37
2022-10-05T13:21:32.568Z,18.45
2022-10-05T13:24:12.562Z,18.48
2022-10-05T13:26:44.123Z,18.49
2022-10-05T13:29:51.029Z,18.49
2022-10-05T13:32:24.978Z,18.50
2022-10-05T13:35:14.568Z,18.55
2022-10-05T13:37:59.750Z,18.79
2022-10-05T13:40:38.191Z,18.88
2022-10-05T13:43:38.783Z,18.78
2022-10-05T13:46:17.475Z,18.68
2022-10-05T13:49:20.765Z,18.75
2022-10-05T13:52:19.533Z,18.74
2022-10-05T13:54:55.122Z,18.79
2022-10-05T13:57:49.593Z,18.90
2022-10-05T14:00:24.131Z,19.06
2022-10-05T14:02:56.137Z,19.03
2022-10-05T14:05:25.200Z,19.08
2022-10-05T14:07:53.411Z,19.04
2022-10-05T14:10:34.096Z,19.05
2022-10-05T14:13:02.182Z,19.17
2022-10-05T14:15:32.128Z,19.15
2022-10-05T14:17:59.299Z,19.11
2022-10-05T14:20:27.180Z,19.22
2022-10-05T14:23:02.029Z,19.28
2022-10-05T14:25:30.508Z,19.20
2022-10-05T14:28:28.253Z,19.27
2022-10-05T14:31:13.184Z,19.20
2022-10-05T14:33:39.811Z,19.24
2022-10-05T14:36:16.321Z,19.22
2022-10-05T14:39:01.902Z,19.11
2022-10-05T14:41:28.807Z,19.21
2022-10-05T14:44:13.177Z,19.19
2022-10-05T14:46:51.863Z,19.12
2022-10-05T14:49:22.229Z,19.26
2022-10-05T14:51:50.136Z,19.31
2022-10-05T14:54:45.838Z,19.33
2022-10-05T14:57:44.059Z,19.32
2022-10-05T15:00:13.328Z,19.26
2022-10-05T15:03:03.936Z,19.21
2022-10-05T15:06:08.696Z,19.14
2022-10-05T15:08:56.921Z,19.09
2022-10-05T15:11:37.753Z,19.05
2022-10-05T15:14:15.017Z,18.94
2022-10-05T15:16:42.374Z,18.96
2022-10-05T15:19:23.613Z,18.97
2022-10-05T15:21:56.004Z,18.91
2022-10-05T15:24:26.287Z,18.86
2022-10-05T15:26:56.395Z,19.00
2022-10-05T15:29:30.335Z,19.04
2022-10-05T15:31:56.612Z,18.99
2022-10-05T15:34:44.652Z,18.95
2022-10-05T15:37:18.810Z,19.11
2022-10-05T15:39:57.787Z,19.09
2022-10-05T15:42:55.099Z,19.10
2022-10-05T15:45:43.248Z,19.07
2022-10-05T15:48:36.926Z,18.97
2022-10-05T15:51:27.579Z,19.19
2022-10-05T15:54:43.236Z,19.27
2022-10-05T15:57:24.881Z,19.41
2022-10-05T16:00:03.984Z,19.30
2022-10-05T16:02:58.775Z,19.13
2022-10-05T16:05:56.805Z,19.19
2022-10-05T16:09:07.098Z,19.17
2022-10-05T16:11:53.000Z,19.14
2022-10-05T16:14:27.890Z,19.08
2022-10-05T16:17:05.693Z,18.97
2022-10-05T16:19:59.340Z,18.93
2022-10-05T16:22:42.486Z,18.88
2022-10-05T16:25:14.916Z,18.81
2022-10-05T16:27:50.411Z,18.78
2022-10-05T16:30:20.697Z,18.69
2022-10-05T16:32:54.268Z,18.72
2022-10-05T16:35:36.883Z,18.63
2022-10-05T16:38:25.353Z,18.69
2022-10-05T16:41:18.556Z,18.59
2022-10-05T16:44:00.122Z,18.59
2022-10-05T16:46:41.758Z,18.52
2022-10-05T16:49:18.572Z,18.53
2022-10-05T16:52:00.905Z,18.50
2022-10-05T16:54:42.189Z,18.46
2022-10-05T16:57:24.807Z,18.45
2022-10-05T17:00:04.884Z,18.32
2022-10-05T17:02:39.106Z,18.25
2022-10-05T17:05:44.198Z,18.19
2022-10-05T17:08:29.356Z,18.34
2022-10-05T17:11:18.841Z,18.21
2022-10-05T17:14:06.076Z,18.12
2022-10-05T17:17:20.567Z,18.17
2022-10-05T17:20:15.511Z,18.09
2022-10-05T17:22:52.167Z,17.95
2022-10-05T17:25:44.712Z,17.81
2022-10-05T17:28:37.146Z,17.76
2022-10-05T17:31:21.644Z,17.67
2022-10-05T17:34:26.275Z,17.80
2022-10-05T17:37:35.299Z,17.86
2022-10-05T17:40:29.623Z,17.78
2022-10-05T17:43:01.251Z,17.70
2022-10-05T17:45:33.402Z,17.65
2022-10-05T17:48:06.064Z,17.61
2022-10-05T17:51:02.955Z,17.66
2022-10-05T17:54:02.909Z,17.81
2022-10-05T17:56:47.759Z,17.95
2022-10-05T17:59:44.523Z,17.90
2022-10-05T18:02:19.861Z,17.97
2022-10-05T18:04:50.460Z,17.91
2022-10-05T18:07:22.848Z,18.04
2022-10-05T18:09:55.028Z,18.13
2022-10-05T18:12:21.287Z,18.03
2022-10-05T18:15:01.466Z,18.14
2022-10-05T18:17:51.221Z,18.05
2022-10-05T18:20:26.424Z,17.96
2022-10-05T18:23:02.716Z,17.80
2022-10-05T18:25:45.357Z,17.82
2022-10-05T18:28:43.144Z,17.79
2022-10-05T18:31:32.983Z,17.71
2022-10-05T18:34:26.083Z,17.69
2022-10-05T18:37:21.597Z,17.58
2022-10-05T18:40:04.271Z,17.59
2022-10-05T18:42:42.771Z,17.66
2022-10-05T18:45:23.607Z,17.69
2022-10-05T18:47:57.603Z,17.72
2022-10-05T18:50:31.879Z,17.66
2022-10-05T18:53:21.617Z,17.67
2022-10-05T18:55:57.575Z,17.47
2022-10-05T18:58:40.845Z,17.47
2022-10-05T19:01:33.807Z,17.43
2022-10-05T19:04:22.627Z,17.38
2022-10-05T19:06:55.025Z,17.35
2022-10-05T19:09:57.124Z,17.22
2022-10-05T19:12:47.742Z,17.15
2022-10-05T19:15:34.438Z,17.11
2022-10-05T19:18:35.832Z,17.02
2022-10-05T19:21:11.988Z,17.00
2022-10-05T19:24:05.864Z,16.92
2022-10-05T19:26:46.793Z,16.85
2022-10-05T19:29:44.664Z,16.75
2022-10-05T19:32:28.719Z,16.67
2022-10-05T19:35:24.144Z,16.68
2022-10-05T19:41:15.868Z,16.69
2022-10-05T19:43:50.232Z,16.65
2022-10-05T19:46:32.896Z,16.63
2022-10-05T19:49:00.200Z,16.66
2022-10-05T19:51:35.570Z,16.56
2022-10-05T19:54:13.527Z,16.50
2022-10-05T19:56:49.466Z,16.42
2022-10-05T19:59:21.752Z,16.34
2022-10-05T20:01:54.060Z,16.33
2022-10-05T20:04:41.166Z,16.25
2022-10-05T20:07:21.353Z,16.14
2022-10-05T20:09:58.006Z,16.25
2022-10-05T20:12:50.827Z,16.25
2022-10-05T20:15:40.885Z,16.23
2022-10-05T20:18:50.234Z,16.17
2022-10-05T20:21:35.551Z,16.08
2022-10-05T20:24:14.587Z,16.07
2022-10-05T20:27:03.538Z,16.05
2022-10-05T20:29:32.091Z,16.01
2022-10-05T20:31:58.955Z,16.08
2022-10-05T20:34:25.593Z,15.97
2022-10-05T20:36:52.103Z,15.90
2022-10-05T20:39:21.051Z,15.88
2022-10-05T20:41:47.546Z,15.85
2022-10-05T20:44:13.908Z,15.80
2022-10-05T20:46:41.540Z,15.78
2022-10-05T20:49:10.902Z,15.73
2022-10-05T20:51:39.976Z,15.61
2022-10-05T20:54:07.720Z,15.62
2022-10-05T20:56:34.408Z,15.59
2022-10-05T20:59:00.865Z,15.57
2022-10-05T21:01:28.708Z,15.52
2022-10-05T21:03:55.329Z,15.49
2022-10-05T21:06:22.024Z,15.45
2022-10-05T21:08:50.750Z,15.49
2022-10-05T21:11:17.300Z,15.50
2022-10-05T21:13:47.020Z,15.52
2022-10-05T21:16:16.638Z,15.63
2022-10-05T21:18:44.331Z,15.62
2022-10-05T21:21:11.071Z,15.51
2022-10-05T21:23:37.361Z,15.55
2022-10-05T21:26:03.829Z,15.58
2022-10-05T21:28:31.354Z,15.55
2022-10-05T21:30:58.001Z,15.50
2022-10-05T21:33:24.638Z,15.44
2022-10-05T21:35:51.356Z,15.34
2022-10-05T21:38:17.630Z,15.40
2022-10-05T21:40:45.305Z,15.35
2022-10-05T21:43:13.266Z,15.36
2022-10-05T21:45:40.938Z,15.50
2022-10-05T21:48:07.599Z,15.53
2022-10-05T21:50:34.979Z,15.61
2022-10-05T21:53:04.302Z,15.63
2022-10-05T21:55:33.328Z,15.67
2022-10-05T21:58:01.079Z,15.64
2022-10-05T22:00:27.673Z,15.68
2022-10-05T22:02:53.983Z,15.65
2022-10-05T22:05:20.403Z,15.66
2022-10-05T22:07:46.882Z,15.68
2022-10-05T22:10:13.334Z,15.65
2022-10-05T22:12:42.465Z,15.60
2022-10-05T22:15:09.487Z,15.50
2022-10-05T22:17:36.060Z,15.46
2022-10-05T22:20:03.574Z,15.43
2022-10-05T22:22:30.044Z,15.38
2022-10-05T22:24:56.327Z,15.30
2022-10-05T22:27:25.409Z,15.22
2022-10-05T22:29:52.452Z,15.16
2022-10-05T22:32:18.759Z,15.12
2022-10-05T22:34:45.122Z,15.08
2022-10-05T22:37:13.074Z,15.12
2022-10-05T22:39:40.092Z,15.14
2022-10-05T22:42:06.875Z,15.08
2022-10-05T22:44:33.744Z,15.05
2022-10-05T22:47:00.823Z,15.03
2022-10-05T22:49:27.315Z,15.13
2022-10-05T22:51:54.697Z,15.19
2022-10-05T22:54:21.554Z,15.20
2022-10-05T22:56:47.862Z,15.19
2022-10-05T22:59:14.194Z,15.30
2022-10-05T23:01:40.545Z,15.37
2022-10-05T23:04:08.691Z,15.42
2022-10-05T23:06:34.994Z,15.37
2022-10-05T23:09:01.305Z,15.39
2022-10-05T23:11:28.100Z,15.24
2022-10-05T23:13:56.687Z,15.24
2022-10-05T23:16:26.103Z,15.15
2022-10-05T23:18:53.970Z,15.18
2022-10-05T23:21:21.750Z,15.21
2022-10-05T23:23:50.867Z,15.26
2022-10-05T23:26:20.209Z,15.22
2022-10-05T23:28:47.245Z,15.15
2022-10-05T23:31:15.999Z,15.00
2022-10-05T23:33:42.415Z,14.88
2022-10-05T23:36:23.692Z,14.85
2022-10-05T23:38:50.654Z,14.78
2022-10-05T23:41:17.679Z,14.75
2022-10-05T23:43:44.020Z,14.67
2022-10-05T23:46:10.608Z,14.68
2022-10-05T23:48:39.662Z,14.64
2022-10-05T23:51:07.935Z,14.62
2022-10-05T23:53:34.570Z,14.56
2022-10-05T23:56:01.213Z,14.50
2022-10-05T23:58:28.262Z,14.52
